sensor_id;sensor_type;location;lat;lon;timestamp;temperature;humidity
69932;DHT22;57243;52.064;5.116;2023-04-03T00:00:31;15.50;57.50
69932;DHT22;57243;52.064;5.116;2023-04-03T00:02:57;15.40;57.70
69932;DHT22;57243;52.064;5.116;2023-04-03T00:05:23;15.50;57.70
69932;DHT22;57243;52.064;5.116;2023-04-03T00:07:48;15.50;57.70
69932;DHT22;57243;52.064;5.116;2023-04-03T00:10:15;15.50;57.50
69932;DHT22;57243;52.064;5.116;2023-04-03T00:12:40;15.40;57.80
69932;DHT22;57243;52.064;5.116;2023-04-03T00:15:06;15.40;57.50
69932;DHT22;57243;52.064;5.116;2023-04-03T00:17:32;15.40;57.70
69932;DHT22;57243;52.064;5.116;2023-04-03T00:19:57;15.40;57.60
69932;DHT22;57243;52.064;5.116;2023-04-03T00:22:23;15.40;57.50
69932;DHT22;57243;52.064;5.116;2023-04-03T00:24:48;15.40;57.80
69932;DHT22;57243;52.064;5.116;2023-04-03T00:27:14;15.40;57.70
69932;DHT22;57243;52.064;5.116;2023-04-03T00:29:41;15.40;57.70
69932;DHT22;57243;52.064;5.116;2023-04-03T00:32:06;15.40;57.70
69932;DHT22;57243;52.064;5.116;2023-04-03T00:34:31;15.40;57.60
69932;DHT22;57243;52.064;5.116;2023-04-03T00:36:57;15.40;57.60
69932;DHT22;57243;52.064;5.116;2023-04-03T00:39:24;15.40;57.40
69932;DHT22;57243;52.064;5.116;2023-04-03T00:41:50;15.40;57.50
69932;DHT22;57243;52.064;5.116;2023-04-03T00:44:22;15.40;57.70
69932;DHT22;57243;52.064;5.116;2023-04-03T00:46:48;15.40;57.30
69932;DHT22;57243;52.064;5.116;2023-04-03T00:49:13;15.40;57.60
69932;DHT22;57243;52.064;5.116;2023-04-03T00:51:39;15.40;57.60
69932;DHT22;57243;52.064;5.116;2023-04-03T00:54:05;15.40;57.50
69932;DHT22;57243;52.064;5.116;2023-04-03T00:56:32;15.40;57.60
69932;DHT22;57243;52.064;5.116;2023-04-03T00:59:02;15.40;57.70
69932;DHT22;57243;52.064;5.116;2023-04-03T01:01:29;15.40;57.60
69932;DHT22;57243;52.064;5.116;2023-04-03T01:03:55;15.50;57.80
69932;DHT22;57243;52.064;5.116;2023-04-03T01:06:23;15.50;57.70
69932;DHT22;57243;52.064;5.116;2023-04-03T01:08:51;15.50;57.70
69932;DHT22;57243;52.064;5.116;2023-04-03T01:11:17;15.50;57.60
69932;DHT22;57243;52.064;5.116;2023-04-03T01:13:43;15.40;57.70
69932;DHT22;57243;52.064;5.116;2023-04-03T01:16:08;15.40;57.80
69932;DHT22;57243;52.064;5.116;2023-04-03T01:18:36;15.40;57.40
69932;DHT22;57243;52.064;5.116;2023-04-03T01:26:25;15.50;57.70
69932;DHT22;57243;52.064;5.116;2023-04-03T01:28:52;15.40;57.50
69932;DHT22;57243;52.064;5.116;2023-04-03T01:31:23;15.40;57.80
69932;DHT22;57243;52.064;5.116;2023-04-03T01:33:49;15.40;57.70
69932;DHT22;57243;52.064;5.116;2023-04-03T01:36:17;15.40;57.60
69932;DHT22;57243;52.064;5.116;2023-04-03T01:38:43;15.40;57.70
69932;DHT22;57243;52.064;5.116;2023-04-03T01:41:08;15.40;57.70
69932;DHT22;57243;52.064;5.116;2023-04-03T01:43:34;15.40;57.50
69932;DHT22;57243;52.064;5.116;2023-04-03T01:45:59;15.30;57.70
69932;DHT22;57243;52.064;5.116;2023-04-03T01:48:25;15.30;57.60
69932;DHT22;57243;52.064;5.116;2023-04-03T01:50:50;15.30;57.60
69932;DHT22;57243;52.064;5.116;2023-04-03T01:53:16;15.30;57.60
69932;DHT22;57243;52.064;5.116;2023-04-03T01:55:41;15.30;57.90
69932;DHT22;57243;52.064;5.116;2023-04-03T01:58:07;15.30;57.70
69932;DHT22;57243;52.064;5.116;2023-04-03T02:00:32;15.40;57.70
69932;DHT22;57243;52.064;5.116;2023-04-03T02:02:58;15.40;57.80
69932;DHT22;57243;52.064;5.116;2023-04-03T02:05:23;15.40;57.80
69932;DHT22;57243;52.064;5.116;2023-04-03T02:07:49;15.40;57.60
69932;DHT22;57243;52.064;5.116;2023-04-03T02:10:14;15.40;57.60
69932;DHT22;57243;52.064;5.116;2023-04-03T02:12:40;15.30;57.60
69932;DHT22;57243;52.064;5.116;2023-04-03T02:15:06;15.30;57.60
69932;DHT22;57243;52.064;5.116;2023-04-03T02:17:31;15.30;57.70
69932;DHT22;57243;52.064;5.116;2023-04-03T02:19:57;15.30;57.60
69932;DHT22;57243;52.064;5.116;2023-04-03T02:22:22;15.30;57.60
69932;DHT22;57243;52.064;5.116;2023-04-03T02:24:48;15.30;57.80
69932;DHT22;57243;52.064;5.116;2023-04-03T02:27:14;15.30;57.60
69932;DHT22;57243;52.064;5.116;2023-04-03T02:29:39;15.30;57.80
69932;DHT22;57243;52.064;5.116;2023-04-03T02:32:05;15.30;57.80
69932;DHT22;57243;52.064;5.116;2023-04-03T02:34:31;15.30;57.70
69932;DHT22;57243;52.064;5.116;2023-04-03T02:36:56;15.30;57.70
69932;DHT22;57243;52.064;5.116;2023-04-03T02:39:22;15.30;57.70
69932;DHT22;57243;52.064;5.116;2023-04-03T02:41:47;15.30;57.70
69932;DHT22;57243;52.064;5.116;2023-04-03T02:44:13;15.30;57.70
69932;DHT22;57243;52.064;5.116;2023-04-03T02:46:38;15.30;57.60
69932;DHT22;57243;52.064;5.116;2023-04-03T02:49:04;15.30;57.70
69932;DHT22;57243;52.064;5.116;2023-04-03T02:51:30;15.30;57.60
69932;DHT22;57243;52.064;5.116;2023-04-03T02:53:55;15.30;57.70
69932;DHT22;57243;52.064;5.116;2023-04-03T02:56:21;15.30;57.50
69932;DHT22;57243;52.064;5.116;2023-04-03T02:58:46;15.30;57.70
69932;DHT22;57243;52.064;5.116;2023-04-03T03:01:12;15.30;57.70
69932;DHT22;57243;52.064;5.116;2023-04-03T03:03:38;15.30;57.60
69932;DHT22;57243;52.064;5.116;2023-04-03T03:06:04;15.30;57.70
69932;DHT22;57243;52.064;5.116;2023-04-03T03:08:30;15.30;57.80
69932;DHT22;57243;52.064;5.116;2023-04-03T03:10:56;15.30;57.90
69932;DHT22;57243;52.064;5.116;2023-04-03T03:13:21;15.30;57.70
69932;DHT22;57243;52.064;5.116;2023-04-03T03:15:47;15.30;57.60
69932;DHT22;57243;52.064;5.116;2023-04-03T03:18:12;15.30;57.70
69932;DHT22;57243;52.064;5.116;2023-04-03T03:20:38;15.30;57.80
69932;DHT22;57243;52.064;5.116;2023-04-03T03:23:03;15.30;57.60
69932;DHT22;57243;52.064;5.116;2023-04-03T03:25:29;15.20;58.00
69932;DHT22;57243;52.064;5.116;2023-04-03T03:27:54;15.30;57.90
69932;DHT22;57243;52.064;5.116;2023-04-03T03:30:20;15.30;57.50
69932;DHT22;57243;52.064;5.116;2023-04-03T03:32:46;15.20;57.80
69932;DHT22;57243;52.064;5.116;2023-04-03T03:35:11;15.30;58.00
69932;DHT22;57243;52.064;5.116;2023-04-03T03:37:37;15.30;58.20
69932;DHT22;57243;52.064;5.116;2023-04-03T03:40:02;15.30;57.40
69932;DHT22;57243;52.064;5.116;2023-04-03T03:42:28;15.30;57.50
69932;DHT22;57243;52.064;5.116;2023-04-03T03:44:53;15.20;58.10
69932;DHT22;57243;52.064;5.116;2023-04-03T03:47:19;15.20;57.90
69932;DHT22;57243;52.064;5.116;2023-04-03T03:49:44;15.20;58.10
69932;DHT22;57243;52.064;5.116;2023-04-03T03:52:10;15.20;58.10
69932;DHT22;57243;52.064;5.116;2023-04-03T03:54:36;15.20;58.20
69932;DHT22;57243;52.064;5.116;2023-04-03T03:57:02;15.20;58.10
69932;DHT22;57243;52.064;5.116;2023-04-03T03:59:28;15.20;57.80
69932;DHT22;57243;52.064;5.116;2023-04-03T04:01:53;15.20;58.20
69932;DHT22;57243;52.064;5.116;2023-04-03T04:04:19;15.20;57.90
69932;DHT22;57243;52.064;5.116;2023-04-03T04:06:45;15.20;58.00
69932;DHT22;57243;52.064;5.116;2023-04-03T04:09:10;15.20;57.90
69932;DHT22;57243;52.064;5.116;2023-04-03T04:11:36;15.20;59.10
69932;DHT22;57243;52.064;5.116;2023-04-03T04:14:01;15.40;63.00
69932;DHT22;57243;52.064;5.116;2023-04-03T04:16:27;15.50;63.40
69932;DHT22;57243;52.064;5.116;2023-04-03T04:18:52;15.70;63.80
69932;DHT22;57243;52.064;5.116;2023-04-03T04:21:18;15.70;63.20
69932;DHT22;57243;52.064;5.116;2023-04-03T04:23:43;15.70;63.40
69932;DHT22;57243;52.064;5.116;2023-04-03T04:26:09;15.70;63.80
69932;DHT22;57243;52.064;5.116;2023-04-03T04:28:34;15.60;63.90
69932;DHT22;57243;52.064;5.116;2023-04-03T04:31:00;15.60;64.30
69932;DHT22;57243;52.064;5.116;2023-04-03T04:33:25;15.60;63.90
69932;DHT22;57243;52.064;5.116;2023-04-03T04:35:51;15.50;64.00
69932;DHT22;57243;52.064;5.116;2023-04-03T04:38:17;15.50;64.10
69932;DHT22;57243;52.064;5.116;2023-04-03T04:40:42;15.50;64.30
69932;DHT22;57243;52.064;5.116;2023-04-03T04:43:08;15.50;64.30
69932;DHT22;57243;52.064;5.116;2023-04-03T04:45:33;15.40;64.50
69932;DHT22;57243;52.064;5.116;2023-04-03T04:47:59;15.40;64.50
69932;DHT22;57243;52.064;5.116;2023-04-03T04:50:24;15.50;64.40
69932;DHT22;57243;52.064;5.116;2023-04-03T04:52:50;15.40;64.60
69932;DHT22;57243;52.064;5.116;2023-04-03T04:55:15;15.50;64.70
69932;DHT22;57243;52.064;5.116;2023-04-03T04:57:41;15.40;64.60
69932;DHT22;57243;52.064;5.116;2023-04-03T05:00:06;15.50;64.80
69932;DHT22;57243;52.064;5.116;2023-04-03T05:02:32;15.50;64.90
69932;DHT22;57243;52.064;5.116;2023-04-03T05:04:58;15.40;64.70
69932;DHT22;57243;52.064;5.116;2023-04-03T05:07:23;15.40;64.40
69932;DHT22;57243;52.064;5.116;2023-04-03T05:09:49;15.40;64.80
69932;DHT22;57243;52.064;5.116;2023-04-03T05:12:15;15.40;64.80
69932;DHT22;57243;52.064;5.116;2023-04-03T05:14:41;15.40;65.00
69932;DHT22;57243;52.064;5.116;2023-04-03T05:17:06;15.40;64.80
69932;DHT22;57243;52.064;5.116;2023-04-03T05:19:32;15.40;64.80
69932;DHT22;57243;52.064;5.116;2023-04-03T05:21:57;15.40;64.80
69932;DHT22;57243;52.064;5.116;2023-04-03T05:24:23;15.40;64.40
69932;DHT22;57243;52.064;5.116;2023-04-03T05:26:48;15.40;64.50
69932;DHT22;57243;52.064;5.116;2023-04-03T05:29:14;15.40;64.60
69932;DHT22;57243;52.064;5.116;2023-04-03T05:31:39;15.40;63.80
69932;DHT22;57243;52.064;5.116;2023-04-03T05:34:05;15.40;63.30
69932;DHT22;57243;52.064;5.116;2023-04-03T05:36:31;15.40;62.80
69932;DHT22;57243;52.064;5.116;2023-04-03T05:38:56;15.50;62.40
69932;DHT22;57243;52.064;5.116;2023-04-03T05:41:22;15.50;62.40
69932;DHT22;57243;52.064;5.116;2023-04-03T05:43:47;15.50;62.00
69932;DHT22;57243;52.064;5.116;2023-04-03T05:46:15;15.50;61.90
69932;DHT22;57243;52.064;5.116;2023-04-03T05:48:41;15.50;61.80
69932;DHT22;57243;52.064;5.116;2023-04-03T05:51:07;15.50;61.40
69932;DHT22;57243;52.064;5.116;2023-04-03T05:53:38;15.50;61.60
69932;DHT22;57243;52.064;5.116;2023-04-03T05:56:04;15.50;61.40
69932;DHT22;57243;52.064;5.116;2023-04-03T05:58:29;15.50;61.40
69932;DHT22;57243;52.064;5.116;2023-04-03T06:00:55;15.50;61.30
69932;DHT22;57243;52.064;5.116;2023-04-03T06:03:21;15.50;61.10
69932;DHT22;57243;52.064;5.116;2023-04-03T06:05:46;15.50;61.10
69932;DHT22;57243;52.064;5.116;2023-04-03T06:08:12;15.50;60.80
69932;DHT22;57243;52.064;5.116;2023-04-03T06:10:38;15.50;61.00
69932;DHT22;57243;52.064;5.116;2023-04-03T06:13:03;15.50;61.10
69932;DHT22;57243;52.064;5.116;2023-04-03T06:15:29;15.50;61.00
69932;DHT22;57243;52.064;5.116;2023-04-03T06:17:54;15.50;61.20
69932;DHT22;57243;52.064;5.116;2023-04-03T06:20:20;15.50;61.30
69932;DHT22;57243;52.064;5.116;2023-04-03T06:22:46;15.50;61.10
69932;DHT22;57243;52.064;5.116;2023-04-03T06:25:11;15.50;61.40
69932;DHT22;57243;52.064;5.116;2023-04-03T06:27:37;15.60;61.40
69932;DHT22;57243;52.064;5.116;2023-04-03T06:30:03;15.50;61.60
69932;DHT22;57243;52.064;5.116;2023-04-03T06:32:29;15.50;61.70
69932;DHT22;57243;52.064;5.116;2023-04-03T06:34:54;15.50;61.70
69932;DHT22;57243;52.064;5.116;2023-04-03T06:37:21;15.50;61.50
69932;DHT22;57243;52.064;5.116;2023-04-03T06:39:47;15.50;61.50
69932;DHT22;57243;52.064;5.116;2023-04-03T06:42:13;15.40;60.20
69932;DHT22;57243;52.064;5.116;2023-04-03T06:44:38;15.30;61.00
69932;DHT22;57243;52.064;5.116;2023-04-03T06:47:04;15.30;61.00
69932;DHT22;57243;52.064;5.116;2023-04-03T06:49:30;15.30;60.90
69932;DHT22;57243;52.064;5.116;2023-04-03T06:51:55;15.20;60.60
69932;DHT22;57243;52.064;5.116;2023-04-03T06:54:21;15.30;61.00
69932;DHT22;57243;52.064;5.116;2023-04-03T06:56:47;15.30;60.20
69932;DHT22;57243;52.064;5.116;2023-04-03T06:59:13;15.30;60.10
69932;DHT22;57243;52.064;5.116;2023-04-03T07:01:41;15.20;60.60
69932;DHT22;57243;52.064;5.116;2023-04-03T07:04:07;15.30;61.00
69932;DHT22;57243;52.064;5.116;2023-04-03T07:06:32;15.30;60.80
69932;DHT22;57243;52.064;5.116;2023-04-03T07:08:58;15.40;59.60
69932;DHT22;57243;52.064;5.116;2023-04-03T07:11:24;15.30;59.60
69932;DHT22;57243;52.064;5.116;2023-04-03T07:13:50;15.30;60.40
69932;DHT22;57243;52.064;5.116;2023-04-03T07:16:15;15.30;59.90
69932;DHT22;57243;52.064;5.116;2023-04-03T07:18:41;15.30;60.40
69932;DHT22;57243;52.064;5.116;2023-04-03T07:21:06;15.30;59.90
69932;DHT22;57243;52.064;5.116;2023-04-03T07:23:32;15.30;60.40
69932;DHT22;57243;52.064;5.116;2023-04-03T07:25:58;15.40;59.70
69932;DHT22;57243;52.064;5.116;2023-04-03T07:28:23;15.30;60.00
69932;DHT22;57243;52.064;5.116;2023-04-03T07:30:50;15.30;60.40
69932;DHT22;57243;52.064;5.116;2023-04-03T07:33:17;15.40;60.60
69932;DHT22;57243;52.064;5.116;2023-04-03T07:35:43;15.50;60.40
69932;DHT22;57243;52.064;5.116;2023-04-03T07:38:09;15.50;59.60
69932;DHT22;57243;52.064;5.116;2023-04-03T07:40:34;15.40;59.90
69932;DHT22;57243;52.064;5.116;2023-04-03T07:43:00;15.40;59.90
69932;DHT22;57243;52.064;5.116;2023-04-03T07:45:26;15.40;59.50
69932;DHT22;57243;52.064;5.116;2023-04-03T07:47:52;15.40;59.80
69932;DHT22;57243;52.064;5.116;2023-04-03T07:50:18;15.40;59.70
69932;DHT22;57243;52.064;5.116;2023-04-03T07:52:44;15.40;60.00
69932;DHT22;57243;52.064;5.116;2023-04-03T07:55:09;15.50;59.90
69932;DHT22;57243;52.064;5.116;2023-04-03T07:57:35;15.40;59.60
69932;DHT22;57243;52.064;5.116;2023-04-03T08:00:02;15.40;59.30
69932;DHT22;57243;52.064;5.116;2023-04-03T08:02:27;15.40;58.70
69932;DHT22;57243;52.064;5.116;2023-04-03T08:04:53;15.40;59.70
69932;DHT22;57243;52.064;5.116;2023-04-03T08:07:18;15.40;58.70
69932;DHT22;57243;52.064;5.116;2023-04-03T08:09:44;15.50;59.70
69932;DHT22;57243;52.064;5.116;2023-04-03T08:12:10;15.50;58.90
69932;DHT22;57243;52.064;5.116;2023-04-03T08:14:36;15.50;58.70
69932;DHT22;57243;52.064;5.116;2023-04-03T08:17:02;15.50;58.90
69932;DHT22;57243;52.064;5.116;2023-04-03T08:19:30;15.50;58.70
69932;DHT22;57243;52.064;5.116;2023-04-03T08:21:55;15.50;59.30
69932;DHT22;57243;52.064;5.116;2023-04-03T08:24:22;15.50;58.80
69932;DHT22;57243;52.064;5.116;2023-04-03T08:26:48;15.40;58.00
69932;DHT22;57243;52.064;5.116;2023-04-03T08:29:13;15.40;57.80
69932;DHT22;57243;52.064;5.116;2023-04-03T08:31:39;15.40;57.80
69932;DHT22;57243;52.064;5.116;2023-04-03T08:34:04;15.40;59.00
69932;DHT22;57243;52.064;5.116;2023-04-03T08:36:30;15.50;57.80
69932;DHT22;57243;52.064;5.116;2023-04-03T08:38:56;15.50;58.20
69932;DHT22;57243;52.064;5.116;2023-04-03T08:43:56;15.50;58.00
69932;DHT22;57243;52.064;5.116;2023-04-03T08:46:24;15.50;58.20
69932;DHT22;57243;52.064;5.116;2023-04-03T08:48:52;15.50;57.30
69932;DHT22;57243;52.064;5.116;2023-04-03T08:51:19;15.50;57.70
69932;DHT22;57243;52.064;5.116;2023-04-03T08:54:05;15.50;58.50
69932;DHT22;57243;52.064;5.116;2023-04-03T08:56:33;15.60;58.50
69932;DHT22;57243;52.064;5.116;2023-04-03T08:59:06;15.60;58.50
69932;DHT22;57243;52.064;5.116;2023-04-03T09:01:36;15.60;57.60
69932;DHT22;57243;52.064;5.116;2023-04-03T09:04:05;15.60;58.10
69932;DHT22;57243;52.064;5.116;2023-04-03T09:06:34;15.70;58.70
69932;DHT22;57243;52.064;5.116;2023-04-03T09:11:27;15.70;57.40
69932;DHT22;57243;52.064;5.116;2023-04-03T09:16:32;15.50;56.90
69932;DHT22;57243;52.064;5.116;2023-04-03T09:19:04;15.60;57.70
69932;DHT22;57243;52.064;5.116;2023-04-03T09:21:36;15.60;56.10
69932;DHT22;57243;52.064;5.116;2023-04-03T09:24:02;15.60;57.30
69932;DHT22;57243;52.064;5.116;2023-04-03T09:27:11;15.60;56.70
69932;DHT22;57243;52.064;5.116;2023-04-03T09:29:18;15.60;56.10
69932;DHT22;57243;52.064;5.116;2023-04-03T09:31:46;15.70;56.70
69932;DHT22;57243;52.064;5.116;2023-04-03T09:34:23;15.70;56.10
69932;DHT22;57243;52.064;5.116;2023-04-03T09:36:49;15.60;56.00
69932;DHT22;57243;52.064;5.116;2023-04-03T09:39:18;15.60;56.10
69932;DHT22;57243;52.064;5.116;2023-04-03T09:41:54;15.60;56.90
69932;DHT22;57243;52.064;5.116;2023-04-03T09:44:21;15.60;55.80
69932;DHT22;57243;52.064;5.116;2023-04-03T09:46:48;15.60;57.00
69932;DHT22;57243;52.064;5.116;2023-04-03T09:49:14;15.70;57.70
69932;DHT22;57243;52.064;5.116;2023-04-03T09:51:40;15.70;55.30
69932;DHT22;57243;52.064;5.116;2023-04-03T09:56:50;15.70;55.50
69932;DHT22;57243;52.064;5.116;2023-04-03T09:59:16;15.60;55.80
69932;DHT22;57243;52.064;5.116;2023-04-03T10:01:43;15.70;56.80
69932;DHT22;57243;52.064;5.116;2023-04-03T10:06:36;15.80;56.10
69932;DHT22;57243;52.064;5.116;2023-04-03T10:09:03;15.70;56.50
69932;DHT22;57243;52.064;5.116;2023-04-03T10:11:30;15.80;55.40
69932;DHT22;57243;52.064;5.116;2023-04-03T10:13:56;15.80;55.40
69932;DHT22;57243;52.064;5.116;2023-04-03T10:16:45;15.80;56.10
69932;DHT22;57243;52.064;5.116;2023-04-03T10:19:17;15.80;56.40
69932;DHT22;57243;52.064;5.116;2023-04-03T10:21:55;15.70;55.10
69932;DHT22;57243;52.064;5.116;2023-04-03T10:26:58;15.80;56.40
69932;DHT22;57243;52.064;5.116;2023-04-03T10:34:28;15.90;55.40
69932;DHT22;57243;52.064;5.116;2023-04-03T10:42:13;15.80;56.70
69932;DHT22;57243;52.064;5.116;2023-04-03T10:47:22;15.90;55.10
69932;DHT22;57243;52.064;5.116;2023-04-03T10:52:37;15.90;55.50
69932;DHT22;57243;52.064;5.116;2023-04-03T10:57:50;15.80;55.00
69932;DHT22;57243;52.064;5.116;2023-04-03T11:00:17;15.80;54.50
69932;DHT22;57243;52.064;5.116;2023-04-03T11:02:49;15.80;54.30
69932;DHT22;57243;52.064;5.116;2023-04-03T11:07:55;15.80;55.70
69932;DHT22;57243;52.064;5.116;2023-04-03T11:10:23;15.80;56.40
69932;DHT22;57243;52.064;5.116;2023-04-03T11:15:17;15.80;56.90
69932;DHT22;57243;52.064;5.116;2023-04-03T11:17:48;15.90;57.00
69932;DHT22;57243;52.064;5.116;2023-04-03T11:22:51;15.90;56.60
69932;DHT22;57243;52.064;5.116;2023-04-03T11:25:20;15.90;57.60
69932;DHT22;57243;52.064;5.116;2023-04-03T11:27:58;15.90;56.00
69932;DHT22;57243;52.064;5.116;2023-04-03T11:33:07;15.90;57.10
69932;DHT22;57243;52.064;5.116;2023-04-03T11:35:37;16.00;57.10
69932;DHT22;57243;52.064;5.116;2023-04-03T11:38:06;16.00;57.00
69932;DHT22;57243;52.064;5.116;2023-04-03T11:40:38;16.00;56.40
69932;DHT22;57243;52.064;5.116;2023-04-03T11:43:05;15.90;56.30
69932;DHT22;57243;52.064;5.116;2023-04-03T11:45:33;16.00;57.30
69932;DHT22;57243;52.064;5.116;2023-04-03T11:48:00;16.00;57.20
69932;DHT22;57243;52.064;5.116;2023-04-03T12:08:41;16.10;56.90
69932;DHT22;57243;52.064;5.116;2023-04-03T12:13:38;16.00;56.20
69932;DHT22;57243;52.064;5.116;2023-04-03T12:16:04;16.10;56.40
69932;DHT22;57243;52.064;5.116;2023-04-03T12:18:31;16.10;56.20
69932;DHT22;57243;52.064;5.116;2023-04-03T12:20:57;16.00;56.10
69932;DHT22;57243;52.064;5.116;2023-04-03T12:23:30;16.10;57.50
69932;DHT22;57243;52.064;5.116;2023-04-03T12:26:01;16.10;57.30
69932;DHT22;57243;52.064;5.116;2023-04-03T12:28:29;16.10;56.30
69932;DHT22;57243;52.064;5.116;2023-04-03T12:30:55;16.10;56.30
69932;DHT22;57243;52.064;5.116;2023-04-03T12:33:27;16.10;56.50
69932;DHT22;57243;52.064;5.116;2023-04-03T12:36:06;16.10;57.00
69932;DHT22;57243;52.064;5.116;2023-04-03T12:38:51;16.10;56.00
69932;DHT22;57243;52.064;5.116;2023-04-03T12:41:27;16.10;55.90
69932;DHT22;57243;52.064;5.116;2023-04-03T12:46:35;16.10;57.70
69932;DHT22;57243;52.064;5.116;2023-04-03T12:49:05;16.10;56.50
69932;DHT22;57243;52.064;5.116;2023-04-03T12:51:39;16.20;56.70
69932;DHT22;57243;52.064;5.116;2023-04-03T12:54:26;16.20;56.50
69932;DHT22;57243;52.064;5.116;2023-04-03T12:59:35;16.30;57.30
69932;DHT22;57243;52.064;5.116;2023-04-03T13:02:07;16.30;57.40
69932;DHT22;57243;52.064;5.116;2023-04-03T13:04:37;16.30;56.70
69932;DHT22;57243;52.064;5.116;2023-04-03T13:07:03;16.30;56.50
69932;DHT22;57243;52.064;5.116;2023-04-03T13:09:30;16.30;55.90
69932;DHT22;57243;52.064;5.116;2023-04-03T13:12:16;16.30;57.50
69932;DHT22;57243;52.064;5.116;2023-04-03T13:14:51;16.30;57.30
69932;DHT22;57243;52.064;5.116;2023-04-03T13:17:17;16.30;56.50
69932;DHT22;57243;52.064;5.116;2023-04-03T13:19:43;16.30;57.60
69932;DHT22;57243;52.064;5.116;2023-04-03T13:22:23;16.30;56.90
69932;DHT22;57243;52.064;5.116;2023-04-03T13:24:51;16.30;56.60
69932;DHT22;57243;52.064;5.116;2023-04-03T13:27:17;16.30;57.10
69932;DHT22;57243;52.064;5.116;2023-04-03T13:29:43;16.30;55.80
69932;DHT22;57243;52.064;5.116;2023-04-03T13:32:14;16.30;57.50
69932;DHT22;57243;52.064;5.116;2023-04-03T13:34:43;16.30;57.40
69932;DHT22;57243;52.064;5.116;2023-04-03T13:37:25;16.40;57.50
69932;DHT22;57243;52.064;5.116;2023-04-03T13:42:33;16.40;57.10
69932;DHT22;57243;52.064;5.116;2023-04-03T13:45:15;16.40;56.70
69932;DHT22;57243;52.064;5.116;2023-04-03T13:47:42;16.30;56.40
69932;DHT22;57243;52.064;5.116;2023-04-03T13:52:40;16.30;56.40
69932;DHT22;57243;52.064;5.116;2023-04-03T14:02:56;16.30;57.50
69932;DHT22;57243;52.064;5.116;2023-04-03T14:05:22;16.40;58.00
69932;DHT22;57243;52.064;5.116;2023-04-03T14:07:48;16.40;56.70
69932;DHT22;57243;52.064;5.116;2023-04-03T14:10:14;16.40;56.80
69932;DHT22;57243;52.064;5.116;2023-04-03T14:12:39;16.40;56.70
69932;DHT22;57243;52.064;5.116;2023-04-03T14:15:18;16.40;57.40
69932;DHT22;57243;52.064;5.116;2023-04-03T14:17:45;16.40;57.40
69932;DHT22;57243;52.064;5.116;2023-04-03T14:20:14;16.40;56.40
69932;DHT22;57243;52.064;5.116;2023-04-03T14:22:40;16.40;56.60
69932;DHT22;57243;52.064;5.116;2023-04-03T14:25:06;16.40;57.50
69932;DHT22;57243;52.064;5.116;2023-04-03T14:27:35;16.40;57.40
69932;DHT22;57243;52.064;5.116;2023-04-03T14:30:03;16.40;57.30
69932;DHT22;57243;52.064;5.116;2023-04-03T14:32:29;16.40;56.50
69932;DHT22;57243;52.064;5.116;2023-04-03T14:34:55;16.40;57.20
69932;DHT22;57243;52.064;5.116;2023-04-03T14:37:23;16.40;57.30
69932;DHT22;57243;52.064;5.116;2023-04-03T14:39:49;16.40;57.00
69932;DHT22;57243;52.064;5.116;2023-04-03T14:42:16;16.40;57.00
69932;DHT22;57243;52.064;5.116;2023-04-03T14:44:42;16.40;57.40
69932;DHT22;57243;52.064;5.116;2023-04-03T14:47:12;16.40;56.30
69932;DHT22;57243;52.064;5.116;2023-04-03T14:49:38;16.40;57.50
69932;DHT22;57243;52.064;5.116;2023-04-03T14:52:04;16.50;57.30
69932;DHT22;57243;52.064;5.116;2023-04-03T14:54:29;16.40;56.30
69932;DHT22;57243;52.064;5.116;2023-04-03T14:56:55;16.40;56.60
69932;DHT22;57243;52.064;5.116;2023-04-03T14:59:22;16.40;56.30
69932;DHT22;57243;52.064;5.116;2023-04-03T15:01:48;16.40;56.80
69932;DHT22;57243;52.064;5.116;2023-04-03T15:04:17;16.40;57.80
69932;DHT22;57243;52.064;5.116;2023-04-03T15:06:43;16.50;57.90
69932;DHT22;57243;52.064;5.116;2023-04-03T15:09:15;16.50;56.60
69932;DHT22;57243;52.064;5.116;2023-04-03T15:11:43;16.40;56.10
69932;DHT22;57243;52.064;5.116;2023-04-03T15:14:09;16.30;56.30
69932;DHT22;57243;52.064;5.116;2023-04-03T15:16:34;16.30;55.90
69932;DHT22;57243;52.064;5.116;2023-04-03T15:19:00;16.30;56.10
69932;DHT22;57243;52.064;5.116;2023-04-03T15:21:25;16.30;56.70
69932;DHT22;57243;52.064;5.116;2023-04-03T15:23:51;16.40;56.90
69932;DHT22;57243;52.064;5.116;2023-04-03T15:26:16;16.50;56.70
69932;DHT22;57243;52.064;5.116;2023-04-03T15:28:42;16.40;56.10
69932;DHT22;57243;52.064;5.116;2023-04-03T15:31:09;16.40;56.40
69932;DHT22;57243;52.064;5.116;2023-04-03T15:33:35;16.40;56.00
69932;DHT22;57243;52.064;5.116;2023-04-03T15:36:00;16.40;56.20
69932;DHT22;57243;52.064;5.116;2023-04-03T15:38:26;16.50;56.00
69932;DHT22;57243;52.064;5.116;2023-04-03T15:40:51;16.50;56.50
69932;DHT22;57243;52.064;5.116;2023-04-03T15:43:17;16.50;56.90
69932;DHT22;57243;52.064;5.116;2023-04-03T15:45:43;16.50;56.60
69932;DHT22;57243;52.064;5.116;2023-04-03T15:48:09;16.50;56.40
69932;DHT22;57243;52.064;5.116;2023-04-03T15:50:35;16.50;56.80
69932;DHT22;57243;52.064;5.116;2023-04-03T15:53:01;16.50;55.90
69932;DHT22;57243;52.064;5.116;2023-04-03T15:55:28;16.40;55.10
69932;DHT22;57243;52.064;5.116;2023-04-03T15:57:53;16.40;55.70
69932;DHT22;57243;52.064;5.116;2023-04-03T16:00:19;16.50;57.00
69932;DHT22;57243;52.064;5.116;2023-04-03T16:02:45;16.50;55.40
69932;DHT22;57243;52.064;5.116;2023-04-03T16:05:12;16.50;56.60
69932;DHT22;57243;52.064;5.116;2023-04-03T16:07:38;16.50;55.30
69932;DHT22;57243;52.064;5.116;2023-04-03T16:10:04;16.50;55.40
69932;DHT22;57243;52.064;5.116;2023-04-03T16:12:30;16.50;55.90
69932;DHT22;57243;52.064;5.116;2023-04-03T16:14:55;16.50;55.20
69932;DHT22;57243;52.064;5.116;2023-04-03T16:17:21;16.50;56.70
69932;DHT22;57243;52.064;5.116;2023-04-03T16:19:47;16.50;56.50
69932;DHT22;57243;52.064;5.116;2023-04-03T16:22:12;16.60;56.20
69932;DHT22;57243;52.064;5.116;2023-04-03T16:24:38;16.50;56.20
69932;DHT22;57243;52.064;5.116;2023-04-03T16:27:03;16.50;56.40
69932;DHT22;57243;52.064;5.116;2023-04-03T16:29:29;16.40;55.30
69932;DHT22;57243;52.064;5.116;2023-04-03T16:31:54;16.40;55.10
69932;DHT22;57243;52.064;5.116;2023-04-03T16:34:21;16.30;55.60
69932;DHT22;57243;52.064;5.116;2023-04-03T16:36:47;16.20;55.60
69932;DHT22;57243;52.064;5.116;2023-04-03T16:39:12;16.30;56.30
69932;DHT22;57243;52.064;5.116;2023-04-03T16:41:38;16.30;56.50
69932;DHT22;57243;52.064;5.116;2023-04-03T16:44:03;16.20;55.60
69932;DHT22;57243;52.064;5.116;2023-04-03T16:46:29;16.20;56.10
69932;DHT22;57243;52.064;5.116;2023-04-03T16:48:54;16.20;55.90
69932;DHT22;57243;52.064;5.116;2023-04-03T16:51:20;16.20;56.10
69932;DHT22;57243;52.064;5.116;2023-04-03T16:53:45;16.20;56.20
69932;DHT22;57243;52.064;5.116;2023-04-03T16:56:11;16.20;56.20